createdAt,value
2018-09-08T00:00:31.418Z,23.02
2018-09-08T00:03:02.792Z,22.99
2018-09-08T00:05:32.810Z,23.06
2018-09-08T00:08:02.155Z,23.13
2018-09-08T00:10:31.490Z,23.10
2018-09-08T00:13:00.751Z,23.17
2018-09-08T00:15:34.927Z,23.16
2018-09-08T00:18:08.907Z,23.17
2018-09-08T00:20:43.290Z,23.15
2018-09-08T00:23:17.687Z,23.13
2018-09-08T00:25:52.143Z,23.11
2018-09-08T00:28:31.570Z,23.13
2018-09-08T00:31:01.135Z,23.08
2018-09-08T00:33:30.119Z,23.08
2018-09-08T00:35:59.399Z,23.06
2018-09-08T00:38:28.842Z,23.03
2018-09-08T00:40:58.379Z,22.99
2018-09-08T00:43:27.500Z,22.89
2018-09-08T00:45:56.922Z,22.90
2018-09-08T00:48:26.272Z,22.87
2018-09-08T00:50:55.619Z,22.80
2018-09-08T00:53:24.869Z,22.77
2018-09-08T00:55:54.027Z,22.76
2018-09-08T00:58:23.319Z,22.79
2018-09-08T01:00:52.712Z,22.79
2018-09-08T01:03:22.100Z,22.82
2018-09-08T01:05:51.581Z,22.85
2018-09-08T01:08:21.028Z,22.87
2018-09-08T01:10:50.125Z,22.86
2018-09-08T01:13:19.275Z,22.82
2018-09-08T01:15:48.662Z,22.85
2018-09-08T01:18:17.982Z,22.87
2018-09-08T01:20:47.310Z,22.85
2018-09-08T01:23:16.738Z,22.88
2018-09-08T01:25:45.896Z,22.84
2018-09-08T01:28:15.264Z,22.82
2018-09-08T01:30:44.453Z,22.81
2018-09-08T01:33:13.763Z,22.79
2018-09-08T01:35:43.003Z,22.72
2018-09-08T01:38:11.845Z,22.59
2018-09-08T01:40:41.184Z,22.44
2018-09-08T01:43:10.435Z,22.38
2018-09-08T01:45:39.755Z,22.44
2018-09-08T01:48:09.135Z,22.26
2018-09-08T01:50:38.643Z,22.18
2018-09-08T01:53:08.210Z,22.01
2018-09-08T01:55:37.410Z,21.80
2018-09-08T01:58:06.457Z,21.65
2018-09-08T02:00:35.505Z,21.62
2018-09-08T02:03:04.747Z,21.63
2018-09-08T02:05:34.041Z,21.70
2018-09-08T02:08:03.355Z,21.67
2018-09-08T02:10:32.736Z,21.61
2018-09-08T02:13:02.037Z,21.68
2018-09-08T02:15:31.211Z,21.72
2018-09-08T02:18:00.633Z,21.81
2018-09-08T02:20:29.931Z,21.92
2018-09-08T02:22:59.331Z,21.98
2018-09-08T02:25:28.816Z,22.01
2018-09-08T02:27:57.991Z,22.05
2018-09-08T02:30:27.331Z,22.04
2018-09-08T02:32:56.367Z,22.06
2018-09-08T02:35:25.867Z,22.11
2018-09-08T02:37:55.227Z,22.07
2018-09-08T02:40:24.624Z,22.11
2018-09-08T02:42:53.919Z,22.20
2018-09-08T02:45:23.187Z,22.22
2018-09-08T02:47:52.229Z,22.21
2018-09-08T02:50:32.884Z,22.23
2018-09-08T02:53:00.962Z,22.36
2018-09-08T02:55:28.979Z,22.39
2018-09-08T02:57:57.090Z,22.37
2018-09-08T03:00:24.680Z,22.37
2018-09-08T03:02:52.575Z,22.33
2018-09-08T03:05:20.232Z,22.33
2018-09-08T03:07:48.039Z,22.33
2018-09-08T03:10:16.135Z,22.37
2018-09-08T03:12:43.776Z,22.31
2018-09-08T03:15:11.279Z,22.27
2018-09-08T03:17:38.995Z,22.26
2018-09-08T03:20:06.644Z,22.25
2018-09-08T03:22:34.303Z,22.27
2018-09-08T03:25:02.181Z,22.25
2018-09-08T03:27:29.843Z,22.28
2018-09-08T03:29:57.491Z,22.29
2018-09-08T03:32:25.056Z,22.23
2018-09-08T03:34:52.724Z,22.15
2018-09-08T03:37:20.283Z,22.16
2018-09-08T03:39:48.635Z,22.14
2018-09-08T03:42:16.221Z,22.13
2018-09-08T03:44:44.073Z,22.10
2018-09-08T03:47:11.565Z,22.10
2018-09-08T03:49:39.287Z,22.04
2018-09-08T03:52:07.064Z,22.07
2018-09-08T03:54:34.586Z,22.07
2018-09-08T03:57:02.131Z,22.04
2018-09-08T03:59:29.624Z,22.03
2018-09-08T04:01:57.301Z,22.02
2018-09-08T04:04:26.760Z,22.06
2018-09-08T04:06:56.048Z,22.04
2018-09-08T04:09:25.109Z,22.11
2018-09-08T04:11:54.521Z,22.11
2018-09-08T04:14:23.848Z,22.14
2018-09-08T04:16:53.500Z,22.19
2018-09-08T04:19:23.108Z,22.25
2018-09-08T04:21:52.158Z,22.25
2018-09-08T04:24:21.599Z,22.16
2018-09-08T04:26:51.911Z,22.21
2018-09-08T04:29:21.352Z,22.22
2018-09-08T04:31:50.596Z,22.31
2018-09-08T04:34:19.520Z,22.30
2018-09-08T04:36:48.371Z,22.29
2018-09-08T04:39:17.805Z,22.35
2018-09-08T04:41:46.796Z,22.39
2018-09-08T04:44:15.992Z,22.44
2018-09-08T04:46:45.254Z,22.44
2018-09-08T04:49:14.821Z,22.49
2018-09-08T04:51:44.197Z,22.46
2018-09-08T04:54:13.511Z,22.50
2018-09-08T04:56:42.999Z,22.53
2018-09-08T04:59:12.335Z,22.57
2018-09-08T05:01:41.344Z,22.61
2018-09-08T05:04:10.529Z,22.68
2018-09-08T05:06:40.013Z,22.72
2018-09-08T05:09:11.632Z,22.88
2018-09-08T05:11:40.806Z,22.89
2018-09-08T05:14:09.992Z,22.90
2018-09-08T05:16:39.195Z,23.04
2018-09-08T05:19:08.461Z,23.09
2018-09-08T05:21:37.371Z,23.14
2018-09-08T05:24:06.481Z,23.21
2018-09-08T05:26:35.823Z,23.27
2018-09-08T05:29:05.115Z,23.30
2018-09-08T05:31:34.868Z,23.31
2018-09-08T05:34:03.705Z,23.42
2018-09-08T05:36:33.213Z,23.47
2018-09-08T05:39:02.239Z,23.50
2018-09-08T05:41:31.450Z,23.47
2018-09-08T05:44:01.008Z,23.52
2018-09-08T05:46:30.617Z,23.57
2018-09-08T05:49:00.137Z,23.60
2018-09-08T05:51:29.300Z,23.71
2018-09-08T05:53:58.220Z,23.69
2018-09-08T05:56:27.610Z,23.67
2018-09-08T05:58:56.770Z,23.63
2018-09-08T06:01:26.203Z,23.63
2018-09-08T06:03:55.392Z,23.72
2018-09-08T06:06:24.986Z,23.77
2018-09-08T06:08:54.432Z,23.77
2018-09-08T06:11:23.812Z,23.84
2018-09-08T06:13:53.214Z,23.84
2018-09-08T06:16:22.664Z,23.91
2018-09-08T06:18:52.007Z,23.90
2018-09-08T06:21:21.522Z,23.85
2018-09-08T06:23:50.922Z,23.92
2018-09-08T06:26:20.240Z,23.94
2018-09-08T06:28:49.133Z,23.99
2018-09-08T06:31:18.448Z,24.03
2018-09-08T06:33:47.676Z,24.13
2018-09-08T06:36:17.076Z,24.20
2018-09-08T06:38:46.481Z,24.23
2018-09-08T06:41:15.773Z,24.30
2018-09-08T06:43:45.055Z,24.36
2018-09-08T06:46:14.505Z,24.46
2018-09-08T06:48:43.866Z,24.38
2018-09-08T06:51:12.930Z,24.45
2018-09-08T06:53:42.110Z,24.48
2018-09-08T06:56:11.451Z,24.51
2018-09-08T06:58:40.796Z,24.59
2018-09-08T07:01:10.190Z,24.68
2018-09-08T07:03:39.362Z,24.77
2018-09-08T07:06:08.367Z,24.83
2018-09-08T07:08:37.423Z,24.91
2018-09-08T07:11:06.988Z,25.07
2018-09-08T07:13:36.764Z,25.16
2018-09-08T07:16:06.041Z,25.29
2018-09-08T07:18:35.509Z,25.32
2018-09-08T07:21:04.903Z,25.45
2018-09-08T07:23:34.395Z,25.31
2018-09-08T07:26:04.115Z,25.22
2018-09-08T07:28:33.620Z,25.27
2018-09-08T07:31:03.084Z,25.25
2018-09-08T07:33:32.444Z,25.40
2018-09-08T07:36:01.858Z,25.51
2018-09-08T07:38:31.315Z,25.64
2018-09-08T07:41:00.584Z,25.89
2018-09-08T07:43:30.012Z,26.24
2018-09-08T07:45:59.349Z,26.44
2018-09-08T07:48:28.582Z,26.77
2018-09-08T07:50:57.919Z,27.19
2018-09-08T07:53:27.411Z,27.76
2018-09-08T07:55:56.464Z,28.07
2018-09-08T07:58:25.667Z,28.45
2018-09-08T08:00:54.903Z,29.09
2018-09-08T08:03:24.084Z,29.26
2018-09-08T08:05:53.461Z,29.71
2018-09-08T08:08:22.617Z,30.02
2018-09-08T08:10:51.959Z,30.10
2018-09-08T08:13:21.154Z,30.01
2018-09-08T08:15:50.347Z,30.14
2018-09-08T08:18:19.452Z,30.50
2018-09-08T08:20:48.712Z,30.77
2018-09-08T08:23:17.991Z,31.26
2018-09-08T08:25:47.327Z,31.75
2018-09-08T08:28:16.905Z,32.35
2018-09-08T08:30:46.135Z,32.88
2018-09-08T08:33:15.488Z,33.13
2018-09-08T08:35:44.622Z,32.99
2018-09-08T08:38:13.991Z,32.80
2018-09-08T08:40:43.035Z,32.77
2018-09-08T08:43:12.144Z,32.72
2018-09-08T08:45:41.278Z,32.63
2018-09-08T08:48:10.624Z,32.45
2018-09-08T08:50:51.034Z,32.55
2018-09-08T08:53:31.090Z,32.21
2018-09-08T08:56:00.274Z,32.24
2018-09-08T08:58:29.782Z,32.03
2018-09-08T09:00:59.283Z,31.75
2018-09-08T09:03:28.583Z,31.53
2018-09-08T09:05:58.003Z,31.33
2018-09-08T09:08:27.376Z,31.42
2018-09-08T09:10:56.007Z,31.33
2018-09-08T09:13:24.934Z,31.18
2018-09-08T09:15:53.970Z,30.98
2018-09-08T09:19:44.156Z,30.86
2018-09-08T09:22:25.313Z,30.78
2018-09-08T09:25:10.136Z,30.93
2018-09-08T09:27:54.192Z,31.16
2018-09-08T09:30:23.640Z,31.74
2018-09-08T09:32:52.473Z,31.93
2018-09-08T09:35:22.572Z,31.99
2018-09-08T09:37:51.832Z,31.47
2018-09-08T09:40:21.892Z,31.53
2018-09-08T09:42:50.828Z,32.02
2018-09-08T09:45:20.168Z,32.96
2018-09-08T09:47:49.334Z,33.93
2018-09-08T09:50:18.685Z,34.21
2018-09-08T09:52:47.676Z,33.79
2018-09-08T09:55:17.038Z,33.55
2018-09-08T09:57:46.295Z,33.25
2018-09-08T10:00:20.512Z,33.02
2018-09-08T10:02:49.712Z,32.66
2018-09-08T10:05:23.246Z,32.43
2018-09-08T10:07:52.829Z,32.30
2018-09-08T10:10:24.415Z,32.17
2018-09-08T10:12:53.497Z,32.32
2018-09-08T10:15:22.744Z,32.85
2018-09-08T10:17:52.192Z,33.04
2018-09-08T10:20:22.834Z,33.52
2018-09-08T10:22:52.103Z,34.58
2018-09-08T10:25:21.490Z,35.27
2018-09-08T10:27:51.857Z,35.11
2018-09-08T10:30:21.427Z,34.35
2018-09-08T10:32:50.843Z,33.56
2018-09-08T10:35:20.075Z,33.04
2018-09-08T10:37:49.207Z,32.96
2018-09-08T10:40:18.533Z,32.91
2018-09-08T10:42:47.834Z,32.75
2018-09-08T10:45:17.279Z,33.52
2018-09-08T10:47:46.625Z,34.94
2018-09-08T10:50:15.913Z,36.45
2018-09-08T10:52:46.815Z,36.46
2018-09-08T10:55:15.947Z,35.29
2018-09-08T10:57:45.112Z,34.77
2018-09-08T11:00:15.863Z,34.42
2018-09-08T11:02:45.223Z,34.68
2018-09-08T11:05:14.424Z,34.70
2018-09-08T11:07:43.820Z,34.43
2018-09-08T11:10:13.162Z,34.08
2018-09-08T11:12:42.359Z,34.46
2018-09-08T11:15:11.872Z,35.65
2018-09-08T11:17:41.196Z,35.91
2018-09-08T11:20:10.612Z,37.26
2018-09-08T11:22:39.756Z,37.93
2018-09-08T11:25:09.208Z,37.49
2018-09-08T11:27:38.467Z,37.43
2018-09-08T11:30:08.512Z,37.80
2018-09-08T11:32:37.422Z,39.41
2018-09-08T11:35:06.859Z,41.20
2018-09-08T11:37:36.116Z,42.47
2018-09-08T11:40:05.452Z,43.53
2018-09-08T11:42:35.042Z,44.59
2018-09-08T11:45:04.215Z,43.65
2018-09-08T11:47:33.617Z,42.07
2018-09-08T11:50:02.781Z,41.08
2018-09-08T11:52:31.928Z,39.36
2018-09-08T11:55:01.308Z,38.63
2018-09-08T11:57:30.143Z,39.90
2018-09-08T11:59:59.343Z,40.30
2018-09-08T12:02:28.564Z,39.84
2018-09-08T12:04:57.730Z,38.89
2018-09-08T12:07:26.791Z,37.78
2018-09-08T12:09:56.000Z,37.80
2018-09-08T12:12:25.241Z,38.42
2018-09-08T12:14:54.627Z,39.44
2018-09-08T12:17:23.970Z,40.52
2018-09-08T12:19:53.363Z,41.38
2018-09-08T12:22:22.722Z,42.38
2018-09-08T12:24:52.095Z,42.32
2018-09-08T12:27:21.319Z,41.07
2018-09-08T12:29:50.538Z,39.78
2018-09-08T12:32:19.728Z,37.55
2018-09-08T12:34:48.739Z,36.27
2018-09-08T12:37:17.786Z,35.30
2018-09-08T12:39:47.102Z,35.24
2018-09-08T12:42:16.363Z,35.86
2018-09-08T12:44:45.765Z,36.97
2018-09-08T12:47:14.807Z,37.91
2018-09-08T12:49:44.046Z,38.96
2018-09-08T12:52:13.079Z,39.44
2018-09-08T12:54:42.304Z,39.59
2018-09-08T12:57:11.274Z,39.05
2018-09-08T12:59:40.584Z,38.04
2018-09-08T13:02:09.719Z,37.20
2018-09-08T13:04:38.976Z,37.71
2018-09-08T13:07:08.088Z,38.20
2018-09-08T13:09:37.139Z,37.14
2018-09-08T13:12:06.507Z,36.78
2018-09-08T13:14:35.805Z,37.65
2018-09-08T13:17:05.118Z,38.70
2018-09-08T13:19:34.397Z,39.06
2018-09-08T13:22:03.783Z,39.40
2018-09-08T13:24:33.019Z,39.53
2018-09-08T13:27:02.348Z,39.18
2018-09-08T13:29:31.491Z,38.18
2018-09-08T13:32:00.525Z,37.06
2018-09-08T13:34:29.728Z,36.31
2018-09-08T13:36:59.071Z,35.66
2018-09-08T13:39:28.606Z,35.15
2018-09-08T13:41:57.546Z,34.75
2018-09-08T13:44:27.093Z,34.28
2018-09-08T13:46:56.436Z,33.99
2018-09-08T13:49:25.882Z,33.72
2018-09-08T13:51:54.955Z,33.44
2018-09-08T13:54:24.255Z,33.22
2018-09-08T13:56:53.171Z,33.11
2018-09-08T13:59:22.421Z,32.98
2018-09-08T14:01:51.616Z,32.81
2018-09-08T14:04:20.604Z,32.68
2018-09-08T14:06:49.900Z,32.53
2018-09-08T14:09:19.372Z,32.51
2018-09-08T14:11:48.870Z,32.57
2018-09-08T14:14:18.108Z,32.49
2018-09-08T14:16:47.352Z,32.30
2018-09-08T14:19:16.560Z,32.16
2018-09-08T14:21:45.783Z,31.81
2018-09-08T14:24:15.012Z,31.64
2018-09-08T14:26:44.039Z,31.63
2018-09-08T14:29:13.088Z,31.59
2018-09-08T14:31:42.464Z,31.44
2018-09-08T14:34:11.735Z,31.19
2018-09-08T14:36:41.170Z,31.12
2018-09-08T14:39:11.233Z,31.05
2018-09-08T14:41:40.546Z,30.71
2018-09-08T14:44:10.061Z,30.36
2018-09-08T14:46:39.303Z,30.03
2018-09-08T14:49:08.609Z,29.66
2018-09-08T14:51:37.608Z,29.35
2018-09-08T14:54:06.979Z,29.26
2018-09-08T14:56:36.491Z,29.24
2018-09-08T14:59:05.849Z,29.27
2018-09-08T15:01:35.141Z,29.33
2018-09-08T15:04:04.414Z,29.32
2018-09-08T15:06:33.710Z,29.38
2018-09-08T15:09:03.244Z,29.43
2018-09-08T15:11:32.457Z,29.49
2018-09-08T15:14:01.792Z,29.54
2018-09-08T15:16:31.003Z,29.60
2018-09-08T15:19:00.246Z,29.56
2018-09-08T15:21:29.579Z,29.54
2018-09-08T15:23:59.109Z,29.50
2018-09-08T15:26:28.240Z,29.42
2018-09-08T15:28:57.493Z,29.28
2018-09-08T15:31:26.593Z,29.01
2018-09-08T15:33:55.880Z,28.73
2018-09-08T15:36:25.127Z,28.54
2018-09-08T15:38:54.545Z,28.36
2018-09-08T15:41:23.874Z,28.09
2018-09-08T15:43:53.229Z,27.85
2018-09-08T15:46:22.480Z,27.62
2018-09-08T15:48:51.672Z,27.56
2018-09-08T15:51:20.990Z,27.43
2018-09-08T15:53:50.275Z,27.31
2018-09-08T15:56:19.607Z,27.26
2018-09-08T15:58:49.195Z,27.13
2018-09-08T16:01:18.656Z,26.85
2018-09-08T16:03:47.879Z,26.58
2018-09-08T16:06:17.275Z,26.53
2018-09-08T16:08:46.617Z,26.40
2018-09-08T16:11:15.887Z,26.27
2018-09-08T16:13:45.137Z,26.24
2018-09-08T16:16:14.521Z,26.21
2018-09-08T16:18:43.578Z,26.18
2018-09-08T16:21:12.827Z,26.18
2018-09-08T16:23:42.217Z,26.19
2018-09-08T16:26:11.520Z,26.11
2018-09-08T16:28:40.865Z,26.11
2018-09-08T16:31:10.055Z,26.01
2018-09-08T16:33:39.598Z,26.01
2018-09-08T16:36:08.508Z,25.96
2018-09-08T16:38:37.847Z,25.85
2018-09-08T16:41:07.195Z,25.82
2018-09-08T16:46:00.589Z,25.78
2018-09-08T16:48:29.871Z,25.69
2018-09-08T16:50:59.172Z,25.61
2018-09-08T16:53:28.124Z,25.57
2018-09-08T16:55:57.371Z,25.52
2018-09-08T16:58:26.787Z,25.47
2018-09-08T17:00:56.167Z,25.47
2018-09-08T17:03:26.139Z,25.38
2018-09-08T17:05:55.528Z,25.34
2018-09-08T17:08:24.876Z,25.34
2018-09-08T17:10:54.135Z,25.30
2018-09-08T17:13:23.456Z,25.25
2018-09-08T17:15:52.732Z,25.22
2018-09-08T17:18:21.717Z,25.21
2018-09-08T17:20:50.941Z,25.16
2018-09-08T17:23:19.899Z,25.05
2018-09-08T17:25:49.171Z,25.02
2018-09-08T17:28:18.540Z,24.99
2018-09-08T17:30:48.015Z,24.95
2018-09-08T17:33:17.115Z,24.98
2018-09-08T17:35:46.308Z,24.98
2018-09-08T17:38:15.544Z,24.95
2018-09-08T17:40:44.795Z,24.94
2018-09-08T17:43:14.051Z,24.89
2018-09-08T17:45:43.364Z,24.87
2018-09-08T17:48:12.375Z,24.90
2018-09-08T17:50:41.436Z,24.90
2018-09-08T17:53:10.737Z,24.86
2018-09-08T17:55:39.980Z,24.85
2018-09-08T17:58:09.215Z,24.83
2018-09-08T18:00:38.943Z,24.84
2018-09-08T18:03:08.312Z,24.75
2018-09-08T18:05:37.319Z,24.79
2018-09-08T18:08:06.649Z,24.79
2018-09-08T18:10:35.628Z,24.78
2018-09-08T18:13:04.995Z,24.73
2018-09-08T18:15:34.160Z,24.72
2018-09-08T18:18:03.441Z,24.64
2018-09-08T18:20:32.429Z,24.68
2018-09-08T18:23:01.673Z,24.70
2018-09-08T18:25:30.668Z,24.69
2018-09-08T18:27:59.839Z,24.61
2018-09-08T18:30:29.027Z,24.57
2018-09-08T18:32:58.161Z,24.59
2018-09-08T18:35:27.178Z,24.53
2018-09-08T18:37:56.659Z,24.57
2018-09-08T18:40:25.736Z,24.57
2018-09-08T18:42:54.939Z,24.54
2018-09-08T18:45:24.123Z,24.52
2018-09-08T18:47:53.380Z,24.47
2018-09-08T18:50:22.830Z,24.47
2018-09-08T18:52:52.125Z,24.39
2018-09-08T18:55:21.348Z,24.38
2018-09-08T18:57:50.767Z,24.33
2018-09-08T19:00:20.549Z,24.32
2018-09-08T19:02:49.815Z,24.29
2018-09-08T19:05:18.958Z,24.24
2018-09-08T19:07:48.286Z,24.25
2018-09-08T19:10:17.684Z,24.23
2018-09-08T19:12:46.882Z,24.25
2018-09-08T19:15:16.427Z,24.25
2018-09-08T19:17:46.456Z,24.23
2018-09-08T19:20:20.578Z,24.21
2018-09-08T19:22:49.795Z,24.17
2018-09-08T19:25:18.709Z,24.12
2018-09-08T19:27:47.949Z,24.11
2018-09-08T19:30:17.109Z,24.08
2018-09-08T19:32:46.493Z,24.01
2018-09-08T19:35:20.784Z,24.02
2018-09-08T19:37:49.907Z,24.03
2018-09-08T19:40:24.340Z,23.99
2018-09-08T19:42:53.573Z,24.02
2018-09-08T19:45:22.905Z,23.99
2018-09-08T19:47:57.164Z,24.01
2018-09-08T19:50:26.500Z,23.93
2018-09-08T19:53:00.821Z,24.00
2018-09-08T19:55:29.855Z,23.93
2018-09-08T19:58:04.111Z,23.83
2018-09-08T20:00:33.471Z,23.79
2018-09-08T20:03:02.540Z,23.78
2018-09-08T20:05:31.684Z,23.72
2018-09-08T20:08:00.835Z,23.73
2018-09-08T20:10:30.187Z,23.78
2018-09-08T20:12:59.535Z,23.79
2018-09-08T20:15:28.783Z,23.71
2018-09-08T20:17:58.183Z,23.72
2018-09-08T20:20:27.316Z,23.69
2018-09-08T20:22:56.388Z,23.66
2018-09-08T20:25:25.350Z,23.61
2018-09-08T20:27:54.616Z,23.55
2018-09-08T20:30:23.960Z,23.55
2018-09-08T20:32:53.360Z,23.63
2018-09-08T20:35:22.589Z,23.65
2018-09-08T20:37:52.011Z,23.69
2018-09-08T20:40:20.984Z,23.64
2018-09-08T20:42:50.256Z,23.58
2018-09-08T20:45:19.552Z,23.61
2018-09-08T20:47:48.646Z,23.56
2018-09-08T20:50:17.864Z,23.54
2018-09-08T20:52:47.152Z,23.54
2018-09-08T20:55:16.404Z,23.51
2018-09-08T20:57:45.360Z,23.48
2018-09-08T21:00:14.337Z,23.45
2018-09-08T21:02:43.472Z,23.47
2018-09-08T21:05:12.814Z,23.40
2018-09-08T21:07:41.893Z,23.33
2018-09-08T21:10:11.204Z,23.32
2018-09-08T21:12:40.193Z,23.31
2018-09-08T21:15:09.405Z,23.28
2018-09-08T21:17:38.599Z,23.25
2018-09-08T21:20:08.004Z,23.19
2018-09-08T21:22:37.292Z,23.16
2018-09-08T21:25:06.480Z,23.13
2018-09-08T21:27:35.567Z,23.13
2018-09-08T21:30:04.853Z,23.13
2018-09-08T21:32:34.151Z,23.13
2018-09-08T21:35:03.528Z,23.07
2018-09-08T21:37:32.870Z,23.06
2018-09-08T21:40:02.078Z,23.12
2018-09-08T21:42:31.235Z,23.14
2018-09-08T21:45:00.364Z,23.11
2018-09-08T21:47:29.716Z,23.09
2018-09-08T21:49:59.121Z,23.05
2018-09-08T21:52:28.627Z,23.03
2018-09-08T21:54:57.649Z,23.06
2018-09-08T21:57:26.966Z,23.03
2018-09-08T21:59:56.113Z,23.01
2018-09-08T22:02:25.087Z,23.10
2018-09-08T22:04:54.251Z,23.17
2018-09-08T22:07:23.504Z,23.13
2018-09-08T22:09:52.886Z,23.10
2018-09-08T22:12:21.934Z,23.04
2018-09-08T22:14:50.968Z,23.01
2018-09-08T22:17:20.076Z,23.03
2018-09-08T22:19:49.344Z,23.01
2018-09-08T22:22:18.655Z,22.98
2018-09-08T22:24:47.801Z,22.95
2018-09-08T22:27:17.031Z,22.88
2018-09-08T22:29:45.987Z,22.81
2018-09-08T22:32:15.469Z,22.77
2018-09-08T22:34:44.514Z,22.75
2018-09-08T22:37:13.708Z,22.68
2018-09-08T22:39:42.831Z,22.67
2018-09-08T22:42:12.059Z,22.64
2018-09-08T22:44:41.036Z,22.61
2018-09-08T22:47:10.441Z,22.54
2018-09-08T22:49:39.835Z,22.57
2018-09-08T22:52:09.081Z,22.59
2018-09-08T22:54:38.438Z,22.58
2018-09-08T22:57:07.716Z,22.59
2018-09-08T22:59:36.946Z,22.61
2018-09-08T23:02:06.192Z,22.59
2018-09-08T23:04:35.157Z,22.51
2018-09-08T23:07:04.281Z,22.51
2018-09-08T23:09:33.612Z,22.40
2018-09-08T23:12:02.971Z,22.39
2018-09-08T23:14:32.263Z,22.39
2018-09-08T23:17:01.664Z,22.44
2018-09-08T23:19:30.619Z,22.46
2018-09-08T23:21:59.648Z,22.46
2018-09-08T23:24:28.644Z,22.42
2018-09-08T23:26:58.091Z,22.47
2018-09-08T23:29:27.315Z,22.50
2018-09-08T23:31:56.635Z,22.43
2018-09-08T23:34:26.153Z,22.40
2018-09-08T23:36:55.107Z,22.44
2018-09-08T23:39:24.159Z,22.48
2018-09-08T23:41:53.369Z,22.50
2018-09-08T23:44:22.655Z,22.49
2018-09-08T23:46:51.756Z,22.47
2018-09-08T23:49:21.011Z,22.45
2018-09-08T23:51:50.242Z,22.51
2018-09-08T23:54:19.162Z,22.52
2018-09-08T23:56:48.534Z,22.53
2018-09-08T23:59:17.901Z,22.54
